sensor_id;sensor_type;location;lat;lon;timestamp;temperature;humidity
20795;DHT22;28087;-33.874;151.240;2023-03-18T00:00:35;28.80;65.90
20795;DHT22;28087;-33.874;151.240;2023-03-18T00:03:13;29.10;65.20
20795;DHT22;28087;-33.874;151.240;2023-03-18T00:05:49;29.40;64.40
20795;DHT22;28087;-33.874;151.240;2023-03-18T00:08:24;29.20;64.90
20795;DHT22;28087;-33.874;151.240;2023-03-18T00:11:00;29.30;64.30
20795;DHT22;28087;-33.874;151.240;2023-03-18T00:13:36;29.50;64.70
20795;DHT22;28087;-33.874;151.240;2023-03-18T00:16:13;29.70;64.20
20795;DHT22;28087;-33.874;151.240;2023-03-18T00:18:51;30.00;63.50
20795;DHT22;28087;-33.874;151.240;2023-03-18T00:21:27;30.10;63.00
20795;DHT22;28087;-33.874;151.240;2023-03-18T00:24:02;30.00;63.10
20795;DHT22;28087;-33.874;151.240;2023-03-18T00:26:39;30.20;62.30
20795;DHT22;28087;-33.874;151.240;2023-03-18T00:29:19;30.30;62.70
20795;DHT22;28087;-33.874;151.240;2023-03-18T00:31:56;30.20;62.60
20795;DHT22;28087;-33.874;151.240;2023-03-18T00:34:34;29.90;62.00
20795;DHT22;28087;-33.874;151.240;2023-03-18T00:37:10;30.00;62.90
20795;DHT22;28087;-33.874;151.240;2023-03-18T00:39:50;29.90;62.50
20795;DHT22;28087;-33.874;151.240;2023-03-18T00:42:26;30.00;62.00
20795;DHT22;28087;-33.874;151.240;2023-03-18T00:45:08;29.80;62.70
20795;DHT22;28087;-33.874;151.240;2023-03-18T00:47:45;30.10;62.40
20795;DHT22;28087;-33.874;151.240;2023-03-18T00:50:25;30.20;61.90
20795;DHT22;28087;-33.874;151.240;2023-03-18T00:53:01;30.30;61.80
20795;DHT22;28087;-33.874;151.240;2023-03-18T00:55:37;30.60;61.40
20795;DHT22;28087;-33.874;151.240;2023-03-18T00:58:13;30.50;61.20
20795;DHT22;28087;-33.874;151.240;2023-03-18T01:00:48;30.30;61.00
20795;DHT22;28087;-33.874;151.240;2023-03-18T01:03:25;30.10;61.60
20795;DHT22;28087;-33.874;151.240;2023-03-18T01:06:03;30.20;61.70
20795;DHT22;28087;-33.874;151.240;2023-03-18T01:08:41;30.60;61.20
20795;DHT22;28087;-33.874;151.240;2023-03-18T01:11:17;30.50;61.40
20795;DHT22;28087;-33.874;151.240;2023-03-18T01:13:53;30.50;60.60
20795;DHT22;28087;-33.874;151.240;2023-03-18T01:16:29;30.50;61.20
20795;DHT22;28087;-33.874;151.240;2023-03-18T01:19:06;30.80;60.70
20795;DHT22;28087;-33.874;151.240;2023-03-18T01:21:43;30.60;60.50
20795;DHT22;28087;-33.874;151.240;2023-03-18T01:24:20;30.70;59.80
20795;DHT22;28087;-33.874;151.240;2023-03-18T01:26:55;30.50;60.50
20795;DHT22;28087;-33.874;151.240;2023-03-18T01:29:32;30.80;60.30
20795;DHT22;28087;-33.874;151.240;2023-03-18T01:32:13;30.90;59.90
20795;DHT22;28087;-33.874;151.240;2023-03-18T01:34:51;30.70;59.70
20795;DHT22;28087;-33.874;151.240;2023-03-18T01:37:29;30.80;59.50
20795;DHT22;28087;-33.874;151.240;2023-03-18T01:40:12;30.70;60.20
20795;DHT22;28087;-33.874;151.240;2023-03-18T01:42:53;30.70;59.90
20795;DHT22;28087;-33.874;151.240;2023-03-18T01:45:34;30.80;60.20
20795;DHT22;28087;-33.874;151.240;2023-03-18T01:48:14;30.70;60.30
20795;DHT22;28087;-33.874;151.240;2023-03-18T01:50:54;30.50;60.40
20795;DHT22;28087;-33.874;151.240;2023-03-18T01:53:35;30.20;60.90
20795;DHT22;28087;-33.874;151.240;2023-03-18T01:56:14;30.10;60.90
20795;DHT22;28087;-33.874;151.240;2023-03-18T01:58:51;30.00;61.60
20795;DHT22;28087;-33.874;151.240;2023-03-18T02:01:31;30.10;61.00
20795;DHT22;28087;-33.874;151.240;2023-03-18T02:04:10;30.20;61.10
20795;DHT22;28087;-33.874;151.240;2023-03-18T02:06:45;30.60;60.60
20795;DHT22;28087;-33.874;151.240;2023-03-18T02:09:23;30.50;60.20
20795;DHT22;28087;-33.874;151.240;2023-03-18T02:12:01;30.20;61.10
20795;DHT22;28087;-33.874;151.240;2023-03-18T02:14:37;30.20;61.00
20795;DHT22;28087;-33.874;151.240;2023-03-18T02:17:17;30.40;60.50
20795;DHT22;28087;-33.874;151.240;2023-03-18T02:20:02;30.60;60.70
20795;DHT22;28087;-33.874;151.240;2023-03-18T02:22:43;30.70;60.40
20795;DHT22;28087;-33.874;151.240;2023-03-18T02:25:32;30.20;60.70
20795;DHT22;28087;-33.874;151.240;2023-03-18T02:28:13;30.30;61.00
20795;DHT22;28087;-33.874;151.240;2023-03-18T02:30:53;30.20;61.20
20795;DHT22;28087;-33.874;151.240;2023-03-18T02:33:34;30.60;60.50
20795;DHT22;28087;-33.874;151.240;2023-03-18T02:36:12;30.60;60.20
20795;DHT22;28087;-33.874;151.240;2023-03-18T02:38:50;30.90;59.80
20795;DHT22;28087;-33.874;151.240;2023-03-18T02:41:28;30.80;59.50
20795;DHT22;28087;-33.874;151.240;2023-03-18T02:44:08;30.50;60.00
20795;DHT22;28087;-33.874;151.240;2023-03-18T02:47:07;30.80;60.00
20795;DHT22;28087;-33.874;151.240;2023-03-18T02:49:44;30.50;59.90
20795;DHT22;28087;-33.874;151.240;2023-03-18T02:52:20;30.30;60.10
20795;DHT22;28087;-33.874;151.240;2023-03-18T02:54:56;30.60;60.20
20795;DHT22;28087;-33.874;151.240;2023-03-18T02:57:35;30.90;60.00
20795;DHT22;28087;-33.874;151.240;2023-03-18T03:00:14;30.90;59.60
20795;DHT22;28087;-33.874;151.240;2023-03-18T03:02:49;31.00;59.50
20795;DHT22;28087;-33.874;151.240;2023-03-18T03:05:25;30.90;59.80
20795;DHT22;28087;-33.874;151.240;2023-03-18T03:08:01;31.00;59.60
20795;DHT22;28087;-33.874;151.240;2023-03-18T03:10:41;30.80;60.10
20795;DHT22;28087;-33.874;151.240;2023-03-18T03:13:17;30.70;60.70
20795;DHT22;28087;-33.874;151.240;2023-03-18T03:15:57;30.60;61.00
20795;DHT22;28087;-33.874;151.240;2023-03-18T03:18:32;30.70;60.60
20795;DHT22;28087;-33.874;151.240;2023-03-18T03:21:09;30.50;61.20
20795;DHT22;28087;-33.874;151.240;2023-03-18T03:23:45;30.60;61.40
20795;DHT22;28087;-33.874;151.240;2023-03-18T03:26:22;30.70;61.00
20795;DHT22;28087;-33.874;151.240;2023-03-18T03:28:57;30.90;60.30
20795;DHT22;28087;-33.874;151.240;2023-03-18T03:31:35;31.00;59.70
20795;DHT22;28087;-33.874;151.240;2023-03-18T03:34:10;30.80;59.90
20795;DHT22;28087;-33.874;151.240;2023-03-18T03:36:46;30.60;60.30
20795;DHT22;28087;-33.874;151.240;2023-03-18T03:39:22;30.70;60.10
20795;DHT22;28087;-33.874;151.240;2023-03-18T03:41:58;30.60;60.40
20795;DHT22;28087;-33.874;151.240;2023-03-18T03:44:33;30.80;60.10
20795;DHT22;28087;-33.874;151.240;2023-03-18T03:47:11;30.60;60.50
20795;DHT22;28087;-33.874;151.240;2023-03-18T03:49:46;30.50;60.90
20795;DHT22;28087;-33.874;151.240;2023-03-18T03:52:23;30.30;61.40
20795;DHT22;28087;-33.874;151.240;2023-03-18T03:54:58;30.30;61.90
20795;DHT22;28087;-33.874;151.240;2023-03-18T03:57:37;30.00;62.80
20795;DHT22;28087;-33.874;151.240;2023-03-18T04:00:14;30.30;62.60
20795;DHT22;28087;-33.874;151.240;2023-03-18T04:02:53;30.40;63.40
20795;DHT22;28087;-33.874;151.240;2023-03-18T04:05:30;30.20;62.90
20795;DHT22;28087;-33.874;151.240;2023-03-18T04:08:07;29.70;64.60
20795;DHT22;28087;-33.874;151.240;2023-03-18T04:10:43;29.60;64.50
20795;DHT22;28087;-33.874;151.240;2023-03-18T04:13:19;29.70;64.20
20795;DHT22;28087;-33.874;151.240;2023-03-18T04:15:55;29.90;63.90
20795;DHT22;28087;-33.874;151.240;2023-03-18T04:18:34;30.00;63.40
20795;DHT22;28087;-33.874;151.240;2023-03-18T04:21:10;29.70;64.10
20795;DHT22;28087;-33.874;151.240;2023-03-18T04:23:51;29.40;65.10
20795;DHT22;28087;-33.874;151.240;2023-03-18T04:26:28;29.30;65.60
20795;DHT22;28087;-33.874;151.240;2023-03-18T04:29:06;29.20;66.10
20795;DHT22;28087;-33.874;151.240;2023-03-18T04:31:42;29.40;65.70
20795;DHT22;28087;-33.874;151.240;2023-03-18T04:34:20;29.40;66.20
20795;DHT22;28087;-33.874;151.240;2023-03-18T04:36:56;29.50;65.70
20795;DHT22;28087;-33.874;151.240;2023-03-18T04:39:33;29.50;65.90
20795;DHT22;28087;-33.874;151.240;2023-03-18T04:42:12;29.30;66.70
20795;DHT22;28087;-33.874;151.240;2023-03-18T04:44:51;29.30;67.10
20795;DHT22;28087;-33.874;151.240;2023-03-18T04:47:26;29.20;67.60
20795;DHT22;28087;-33.874;151.240;2023-03-18T04:50:06;29.00;68.50
20795;DHT22;28087;-33.874;151.240;2023-03-18T04:52:44;28.90;69.30
20795;DHT22;28087;-33.874;151.240;2023-03-18T04:55:25;28.80;69.40
20795;DHT22;28087;-33.874;151.240;2023-03-18T04:58:03;28.80;70.00
20795;DHT22;28087;-33.874;151.240;2023-03-18T05:00:43;28.80;69.70
20795;DHT22;28087;-33.874;151.240;2023-03-18T05:03:35;28.70;70.70
20795;DHT22;28087;-33.874;151.240;2023-03-18T05:06:21;28.90;70.00
20795;DHT22;28087;-33.874;151.240;2023-03-18T05:09:00;29.00;69.50
20795;DHT22;28087;-33.874;151.240;2023-03-18T05:11:38;29.00;69.70
20795;DHT22;28087;-33.874;151.240;2023-03-18T05:14:22;29.00;69.40
20795;DHT22;28087;-33.874;151.240;2023-03-18T05:17:00;28.90;69.60
20795;DHT22;28087;-33.874;151.240;2023-03-18T05:19:39;28.70;69.90
20795;DHT22;28087;-33.874;151.240;2023-03-18T05:22:22;28.50;70.80
20795;DHT22;28087;-33.874;151.240;2023-03-18T05:25:07;28.50;71.10
20795;DHT22;28087;-33.874;151.240;2023-03-18T05:27:44;28.40;71.40
20795;DHT22;28087;-33.874;151.240;2023-03-18T05:30:30;28.50;71.80
20795;DHT22;28087;-33.874;151.240;2023-03-18T05:33:11;28.30;72.00
20795;DHT22;28087;-33.874;151.240;2023-03-18T05:35:54;28.30;72.40
20795;DHT22;28087;-33.874;151.240;2023-03-18T05:38:38;28.00;73.30
20795;DHT22;28087;-33.874;151.240;2023-03-18T05:41:13;28.00;73.50
20795;DHT22;28087;-33.874;151.240;2023-03-18T05:43:49;28.10;73.40
20795;DHT22;28087;-33.874;151.240;2023-03-18T05:46:27;27.90;74.20
20795;DHT22;28087;-33.874;151.240;2023-03-18T05:49:11;28.00;74.20
20795;DHT22;28087;-33.874;151.240;2023-03-18T05:52:03;28.00;74.60
20795;DHT22;28087;-33.874;151.240;2023-03-18T05:54:45;28.00;74.70
20795;DHT22;28087;-33.874;151.240;2023-03-18T05:57:27;28.20;74.40
20795;DHT22;28087;-33.874;151.240;2023-03-18T06:00:07;28.10;74.20
20795;DHT22;28087;-33.874;151.240;2023-03-18T06:02:46;28.00;74.90
20795;DHT22;28087;-33.874;151.240;2023-03-18T06:05:24;27.90;75.10
20795;DHT22;28087;-33.874;151.240;2023-03-18T06:08:01;28.00;75.20
20795;DHT22;28087;-33.874;151.240;2023-03-18T06:10:40;27.80;75.30
20795;DHT22;28087;-33.874;151.240;2023-03-18T06:13:16;27.80;75.70
20795;DHT22;28087;-33.874;151.240;2023-03-18T06:15:57;27.70;75.50
20795;DHT22;28087;-33.874;151.240;2023-03-18T06:18:33;27.60;76.00
20795;DHT22;28087;-33.874;151.240;2023-03-18T06:21:10;27.50;76.00
20795;DHT22;28087;-33.874;151.240;2023-03-18T06:23:45;27.60;76.40
20795;DHT22;28087;-33.874;151.240;2023-03-18T06:26:24;27.60;76.40
20795;DHT22;28087;-33.874;151.240;2023-03-18T06:29:00;27.70;76.40
20795;DHT22;28087;-33.874;151.240;2023-03-18T06:31:37;27.70;76.20
20795;DHT22;28087;-33.874;151.240;2023-03-18T06:34:15;27.60;76.40
20795;DHT22;28087;-33.874;151.240;2023-03-18T06:36:51;27.80;76.10
20795;DHT22;28087;-33.874;151.240;2023-03-18T06:39:29;27.80;76.20
20795;DHT22;28087;-33.874;151.240;2023-03-18T06:42:09;27.70;76.10
20795;DHT22;28087;-33.874;151.240;2023-03-18T06:44:53;27.80;76.10
20795;DHT22;28087;-33.874;151.240;2023-03-18T06:47:43;27.70;76.20
20795;DHT22;28087;-33.874;151.240;2023-03-18T06:50:20;27.70;76.40
20795;DHT22;28087;-33.874;151.240;2023-03-18T06:52:56;27.70;76.40
20795;DHT22;28087;-33.874;151.240;2023-03-18T06:55:35;27.70;76.70
20795;DHT22;28087;-33.874;151.240;2023-03-18T06:58:13;27.60;76.90
20795;DHT22;28087;-33.874;151.240;2023-03-18T07:01:00;27.50;77.20
20795;DHT22;28087;-33.874;151.240;2023-03-18T07:03:41;27.60;77.00
20795;DHT22;28087;-33.874;151.240;2023-03-18T07:06:17;27.60;77.00
20795;DHT22;28087;-33.874;151.240;2023-03-18T07:08:53;27.60;76.90
20795;DHT22;28087;-33.874;151.240;2023-03-18T07:11:30;27.50;77.00
20795;DHT22;28087;-33.874;151.240;2023-03-18T07:14:13;27.50;77.40
20795;DHT22;28087;-33.874;151.240;2023-03-18T07:16:49;27.50;77.60
20795;DHT22;28087;-33.874;151.240;2023-03-18T07:19:26;27.30;77.70
20795;DHT22;28087;-33.874;151.240;2023-03-18T07:22:03;27.30;77.80
20795;DHT22;28087;-33.874;151.240;2023-03-18T07:24:39;27.20;78.00
20795;DHT22;28087;-33.874;151.240;2023-03-18T07:27:15;27.20;78.10
20795;DHT22;28087;-33.874;151.240;2023-03-18T07:29:54;27.20;78.10
20795;DHT22;28087;-33.874;151.240;2023-03-18T07:32:29;27.10;78.40
20795;DHT22;28087;-33.874;151.240;2023-03-18T07:35:07;27.00;78.50
20795;DHT22;28087;-33.874;151.240;2023-03-18T07:37:45;27.00;78.60
20795;DHT22;28087;-33.874;151.240;2023-03-18T07:40:21;27.00;78.80
20795;DHT22;28087;-33.874;151.240;2023-03-18T07:42:56;27.00;79.10
20795;DHT22;28087;-33.874;151.240;2023-03-18T07:45:34;26.80;79.30
20795;DHT22;28087;-33.874;151.240;2023-03-18T07:48:09;26.80;79.20
20795;DHT22;28087;-33.874;151.240;2023-03-18T07:50:46;26.80;79.20
20795;DHT22;28087;-33.874;151.240;2023-03-18T07:53:22;26.80;79.20
20795;DHT22;28087;-33.874;151.240;2023-03-18T07:55:57;26.80;79.40
20795;DHT22;28087;-33.874;151.240;2023-03-18T07:58:33;26.90;79.40
20795;DHT22;28087;-33.874;151.240;2023-03-18T08:01:11;26.90;79.10
20795;DHT22;28087;-33.874;151.240;2023-03-18T08:03:50;26.80;79.20
20795;DHT22;28087;-33.874;151.240;2023-03-18T08:06:26;26.80;79.20
20795;DHT22;28087;-33.874;151.240;2023-03-18T08:09:01;26.80;79.40
20795;DHT22;28087;-33.874;151.240;2023-03-18T08:11:37;26.90;79.40
20795;DHT22;28087;-33.874;151.240;2023-03-18T08:14:13;26.80;79.30
20795;DHT22;28087;-33.874;151.240;2023-03-18T08:16:51;26.90;79.50
20795;DHT22;28087;-33.874;151.240;2023-03-18T08:19:26;26.90;79.20
20795;DHT22;28087;-33.874;151.240;2023-03-18T08:22:02;26.80;79.40
20795;DHT22;28087;-33.874;151.240;2023-03-18T08:24:38;26.90;79.20
20795;DHT22;28087;-33.874;151.240;2023-03-18T08:27:15;26.80;79.50
20795;DHT22;28087;-33.874;151.240;2023-03-18T08:29:50;26.80;79.70
20795;DHT22;28087;-33.874;151.240;2023-03-18T08:32:28;26.70;79.50
20795;DHT22;28087;-33.874;151.240;2023-03-18T08:35:04;26.80;79.70
20795;DHT22;28087;-33.874;151.240;2023-03-18T08:37:41;26.80;79.50
20795;DHT22;28087;-33.874;151.240;2023-03-18T08:40:17;26.80;79.40
20795;DHT22;28087;-33.874;151.240;2023-03-18T08:42:53;26.90;79.30
20795;DHT22;28087;-33.874;151.240;2023-03-18T08:45:30;26.60;79.90
20795;DHT22;28087;-33.874;151.240;2023-03-18T08:48:08;26.70;79.80
20795;DHT22;28087;-33.874;151.240;2023-03-18T08:50:44;26.80;79.60
20795;DHT22;28087;-33.874;151.240;2023-03-18T08:53:20;26.70;79.90
20795;DHT22;28087;-33.874;151.240;2023-03-18T08:55:56;26.80;79.60
20795;DHT22;28087;-33.874;151.240;2023-03-18T08:58:32;26.70;79.90
20795;DHT22;28087;-33.874;151.240;2023-03-18T09:01:08;26.60;79.90
20795;DHT22;28087;-33.874;151.240;2023-03-18T09:03:46;26.60;79.80
20795;DHT22;28087;-33.874;151.240;2023-03-18T09:06:22;26.60;80.00
20795;DHT22;28087;-33.874;151.240;2023-03-18T09:08:58;26.70;79.90
20795;DHT22;28087;-33.874;151.240;2023-03-18T09:11:34;26.70;79.90
20795;DHT22;28087;-33.874;151.240;2023-03-18T09:14:10;26.80;79.80
20795;DHT22;28087;-33.874;151.240;2023-03-18T09:16:47;26.80;79.80
20795;DHT22;28087;-33.874;151.240;2023-03-18T09:19:24;26.80;79.70
20795;DHT22;28087;-33.874;151.240;2023-03-18T09:22:00;26.80;79.60
20795;DHT22;28087;-33.874;151.240;2023-03-18T09:24:36;26.60;79.90
20795;DHT22;28087;-33.874;151.240;2023-03-18T09:27:12;26.90;79.70
20795;DHT22;28087;-33.874;151.240;2023-03-18T09:29:47;26.90;79.60
20795;DHT22;28087;-33.874;151.240;2023-03-18T09:32:23;26.80;79.60
20795;DHT22;28087;-33.874;151.240;2023-03-18T09:35:01;26.70;80.00
20795;DHT22;28087;-33.874;151.240;2023-03-18T09:37:37;26.70;80.20
20795;DHT22;28087;-33.874;151.240;2023-03-18T09:40:18;26.60;80.00
20795;DHT22;28087;-33.874;151.240;2023-03-18T09:43:11;26.70;80.20
20795;DHT22;28087;-33.874;151.240;2023-03-18T09:45:56;26.70;80.40
20795;DHT22;28087;-33.874;151.240;2023-03-18T09:48:53;26.60;80.20
20795;DHT22;28087;-33.874;151.240;2023-03-18T09:51:41;26.70;80.20
20795;DHT22;28087;-33.874;151.240;2023-03-18T09:54:28;26.60;80.20
20795;DHT22;28087;-33.874;151.240;2023-03-18T09:57:10;26.50;80.50
20795;DHT22;28087;-33.874;151.240;2023-03-18T09:59:51;26.50;80.50
20795;DHT22;28087;-33.874;151.240;2023-03-18T10:02:32;26.50;80.50
20795;DHT22;28087;-33.874;151.240;2023-03-18T10:05:13;26.50;80.50
20795;DHT22;28087;-33.874;151.240;2023-03-18T10:07:55;26.60;80.50
20795;DHT22;28087;-33.874;151.240;2023-03-18T10:10:37;26.60;80.60
20795;DHT22;28087;-33.874;151.240;2023-03-18T10:13:19;26.60;80.50
20795;DHT22;28087;-33.874;151.240;2023-03-18T10:15:57;26.60;80.50
20795;DHT22;28087;-33.874;151.240;2023-03-18T10:18:36;26.60;80.40
20795;DHT22;28087;-33.874;151.240;2023-03-18T10:21:20;26.70;80.40
20795;DHT22;28087;-33.874;151.240;2023-03-18T10:24:08;26.60;80.40
20795;DHT22;28087;-33.874;151.240;2023-03-18T10:26:51;26.60;80.50
20795;DHT22;28087;-33.874;151.240;2023-03-18T10:29:37;26.70;80.40
20795;DHT22;28087;-33.874;151.240;2023-03-18T10:32:25;26.80;80.40
20795;DHT22;28087;-33.874;151.240;2023-03-18T10:35:25;26.60;80.60
20795;DHT22;28087;-33.874;151.240;2023-03-18T10:38:03;26.60;80.50
20795;DHT22;28087;-33.874;151.240;2023-03-18T10:40:43;26.60;80.50
20795;DHT22;28087;-33.874;151.240;2023-03-18T10:43:22;26.60;80.60
20795;DHT22;28087;-33.874;151.240;2023-03-18T10:46:00;26.50;80.60
20795;DHT22;28087;-33.874;151.240;2023-03-18T10:48:37;26.60;80.60
20795;DHT22;28087;-33.874;151.240;2023-03-18T10:51:18;26.50;80.50
20795;DHT22;28087;-33.874;151.240;2023-03-18T10:54:01;26.60;80.60
20795;DHT22;28087;-33.874;151.240;2023-03-18T10:56:41;26.50;80.60
20795;DHT22;28087;-33.874;151.240;2023-03-18T10:59:18;26.60;80.50
20795;DHT22;28087;-33.874;151.240;2023-03-18T11:02:00;26.70;80.50
20795;DHT22;28087;-33.874;151.240;2023-03-18T11:04:40;26.60;80.50
20795;DHT22;28087;-33.874;151.240;2023-03-18T11:07:21;26.50;80.60
20795;DHT22;28087;-33.874;151.240;2023-03-18T11:10:11;26.60;80.60
20795;DHT22;28087;-33.874;151.240;2023-03-18T11:12:50;26.60;80.60
20795;DHT22;28087;-33.874;151.240;2023-03-18T11:15:28;26.60;80.50
20795;DHT22;28087;-33.874;151.240;2023-03-18T11:18:05;26.60;80.60
20795;DHT22;28087;-33.874;151.240;2023-03-18T11:20:53;26.60;80.50
20795;DHT22;28087;-33.874;151.240;2023-03-18T11:23:32;26.60;80.60
20795;DHT22;28087;-33.874;151.240;2023-03-18T11:26:20;26.60;80.60
20795;DHT22;28087;-33.874;151.240;2023-03-18T11:29:01;26.60;80.60
20795;DHT22;28087;-33.874;151.240;2023-03-18T11:31:49;26.50;80.60
20795;DHT22;28087;-33.874;151.240;2023-03-18T11:34:27;26.50;80.60
20795;DHT22;28087;-33.874;151.240;2023-03-18T11:37:04;26.50;80.60
20795;DHT22;28087;-33.874;151.240;2023-03-18T11:39:40;26.60;80.60
20795;DHT22;28087;-33.874;151.240;2023-03-18T11:42:18;26.60;80.60
20795;DHT22;28087;-33.874;151.240;2023-03-18T11:45:00;26.60;80.60
20795;DHT22;28087;-33.874;151.240;2023-03-18T11:47:37;26.50;80.60
20795;DHT22;28087;-33.874;151.240;2023-03-18T11:50:18;26.50;80.60
20795;DHT22;28087;-33.874;151.240;2023-03-18T11:53:01;26.40;80.60
20795;DHT22;28087;-33.874;151.240;2023-03-18T11:55:42;26.40;80.60
20795;DHT22;28087;-33.874;151.240;2023-03-18T11:58:38;26.50;80.60
20795;DHT22;28087;-33.874;151.240;2023-03-18T12:01:22;26.50;80.60
20795;DHT22;28087;-33.874;151.240;2023-03-18T12:07:30;26.50;80.60
20795;DHT22;28087;-33.874;151.240;2023-03-18T12:10:17;26.50;80.60
20795;DHT22;28087;-33.874;151.240;2023-03-18T12:16:02;26.50;80.60
20795;DHT22;28087;-33.874;151.240;2023-03-18T12:19:00;26.50;80.60
20795;DHT22;28087;-33.874;151.240;2023-03-18T12:21:50;26.30;80.50
20795;DHT22;28087;-33.874;151.240;2023-03-18T12:27:44;26.40;80.60
20795;DHT22;28087;-33.874;151.240;2023-03-18T12:30:45;26.40;80.60
20795;DHT22;28087;-33.874;151.240;2023-03-18T12:33:41;26.30;80.50
20795;DHT22;28087;-33.874;151.240;2023-03-18T12:36:30;26.40;80.60
20795;DHT22;28087;-33.874;151.240;2023-03-18T12:42:28;26.30;80.50
20795;DHT22;28087;-33.874;151.240;2023-03-18T12:45:09;26.40;80.60
20795;DHT22;28087;-33.874;151.240;2023-03-18T12:47:46;26.40;80.60
20795;DHT22;28087;-33.874;151.240;2023-03-18T12:50:25;26.40;80.60
20795;DHT22;28087;-33.874;151.240;2023-03-18T12:53:10;26.40;80.50
20795;DHT22;28087;-33.874;151.240;2023-03-18T12:55:48;26.30;80.50
20795;DHT22;28087;-33.874;151.240;2023-03-18T12:58:27;26.40;80.60
20795;DHT22;28087;-33.874;151.240;2023-03-18T13:01:06;26.30;80.50
20795;DHT22;28087;-33.874;151.240;2023-03-18T13:03:52;26.30;80.50
20795;DHT22;28087;-33.874;151.240;2023-03-18T13:06:32;26.20;80.50
20795;DHT22;28087;-33.874;151.240;2023-03-18T13:09:19;26.30;80.50
20795;DHT22;28087;-33.874;151.240;2023-03-18T13:12:07;26.20;80.50
20795;DHT22;28087;-33.874;151.240;2023-03-18T13:14:53;26.30;80.50
20795;DHT22;28087;-33.874;151.240;2023-03-18T13:17:32;26.20;80.50
20795;DHT22;28087;-33.874;151.240;2023-03-18T13:20:12;26.20;80.50
20795;DHT22;28087;-33.874;151.240;2023-03-18T13:23:13;26.20;80.50
20795;DHT22;28087;-33.874;151.240;2023-03-18T13:26:02;26.20;80.50
20795;DHT22;28087;-33.874;151.240;2023-03-18T13:28:50;26.20;80.50
20795;DHT22;28087;-33.874;151.240;2023-03-18T13:31:36;26.20;80.50
20795;DHT22;28087;-33.874;151.240;2023-03-18T13:34:44;26.10;80.50
20795;DHT22;28087;-33.874;151.240;2023-03-18T13:37:52;26.20;80.50
20795;DHT22;28087;-33.874;151.240;2023-03-18T13:43:32;26.10;80.50
20795;DHT22;28087;-33.874;151.240;2023-03-18T13:46:17;26.20;80.50
20795;DHT22;28087;-33.874;151.240;2023-03-18T13:48:56;26.10;80.50
20795;DHT22;28087;-33.874;151.240;2023-03-18T13:51:52;26.20;80.50
20795;DHT22;28087;-33.874;151.240;2023-03-18T13:54:33;26.00;80.50
20795;DHT22;28087;-33.874;151.240;2023-03-18T13:57:31;25.90;80.50
20795;DHT22;28087;-33.874;151.240;2023-03-18T14:00:24;26.00;80.50
20795;DHT22;28087;-33.874;151.240;2023-03-18T14:03:16;26.00;80.50
20795;DHT22;28087;-33.874;151.240;2023-03-18T14:06:23;26.00;80.50
20795;DHT22;28087;-33.874;151.240;2023-03-18T14:09:35;26.00;80.50
20795;DHT22;28087;-33.874;151.240;2023-03-18T14:12:22;26.00;80.50
20795;DHT22;28087;-33.874;151.240;2023-03-18T14:15:41;26.00;80.50
20795;DHT22;28087;-33.874;151.240;2023-03-18T14:18:23;26.00;80.50
20795;DHT22;28087;-33.874;151.240;2023-03-18T14:21:03;26.00;80.50
20795;DHT22;28087;-33.874;151.240;2023-03-18T14:23:42;26.00;80.50
20795;DHT22;28087;-33.874;151.240;2023-03-18T14:26:22;26.00;80.50
20795;DHT22;28087;-33.874;151.240;2023-03-18T14:29:16;26.00;80.50
20795;DHT22;28087;-33.874;151.240;2023-03-18T14:32:02;25.90;80.50
20795;DHT22;28087;-33.874;151.240;2023-03-18T14:34:54;25.90;80.50
20795;DHT22;28087;-33.874;151.240;2023-03-18T14:37:30;25.90;80.50
20795;DHT22;28087;-33.874;151.240;2023-03-18T14:40:15;25.90;80.50
20795;DHT22;28087;-33.874;151.240;2023-03-18T14:42:56;25.90;80.50
20795;DHT22;28087;-33.874;151.240;2023-03-18T14:45:34;25.90;80.50
20795;DHT22;28087;-33.874;151.240;2023-03-18T14:48:17;25.90;80.50
20795;DHT22;28087;-33.874;151.240;2023-03-18T14:50:57;25.80;80.50
20795;DHT22;28087;-33.874;151.240;2023-03-18T14:53:34;25.90;80.50
20795;DHT22;28087;-33.874;151.240;2023-03-18T14:56:18;25.90;80.50
20795;DHT22;28087;-33.874;151.240;2023-03-18T14:58:54;26.00;80.50
20795;DHT22;28087;-33.874;151.240;2023-03-18T15:01:35;25.90;80.50
20795;DHT22;28087;-33.874;151.240;2023-03-18T15:04:17;25.90;80.50
20795;DHT22;28087;-33.874;151.240;2023-03-18T15:06:55;25.80;80.50
20795;DHT22;28087;-33.874;151.240;2023-03-18T15:09:31;25.90;80.50
20795;DHT22;28087;-33.874;151.240;2023-03-18T15:12:17;25.90;80.50
20795;DHT22;28087;-33.874;151.240;2023-03-18T15:14:53;25.80;80.50
20795;DHT22;28087;-33.874;151.240;2023-03-18T15:17:28;25.80;80.50
20795;DHT22;28087;-33.874;151.240;2023-03-18T15:20:10;25.80;80.50
20795;DHT22;28087;-33.874;151.240;2023-03-18T15:22:48;25.90;80.50
20795;DHT22;28087;-33.874;151.240;2023-03-18T15:25:24;25.80;80.50
20795;DHT22;28087;-33.874;151.240;2023-03-18T15:28:00;25.80;80.50
20795;DHT22;28087;-33.874;151.240;2023-03-18T15:30:36;25.90;80.50
20795;DHT22;28087;-33.874;151.240;2023-03-18T15:33:18;25.90;80.50
20795;DHT22;28087;-33.874;151.240;2023-03-18T15:36:02;25.80;80.50
20795;DHT22;28087;-33.874;151.240;2023-03-18T15:38:45;25.80;80.50
20795;DHT22;28087;-33.874;151.240;2023-03-18T15:41:21;25.90;80.50
20795;DHT22;28087;-33.874;151.240;2023-03-18T15:43:59;25.80;80.50
20795;DHT22;28087;-33.874;151.240;2023-03-18T15:46:35;25.80;80.50
20795;DHT22;28087;-33.874;151.240;2023-03-18T15:49:11;25.70;80.50
20795;DHT22;28087;-33.874;151.240;2023-03-18T15:51:49;25.70;80.50
20795;DHT22;28087;-33.874;151.240;2023-03-18T15:54:39;25.70;80.50
20795;DHT22;28087;-33.874;151.240;2023-03-18T15:57:27;25.70;80.50
20795;DHT22;28087;-33.874;151.240;2023-03-18T16:00:04;25.70;80.50
20795;DHT22;28087;-33.874;151.240;2023-03-18T16:02:42;25.60;80.50
20795;DHT22;28087;-33.874;151.240;2023-03-18T16:05:19;25.60;80.50
20795;DHT22;28087;-33.874;151.240;2023-03-18T16:07:57;25.60;80.50
20795;DHT22;28087;-33.874;151.240;2023-03-18T16:10:33;25.60;80.50
20795;DHT22;28087;-33.874;151.240;2023-03-18T16:13:15;25.70;80.50
20795;DHT22;28087;-33.874;151.240;2023-03-18T16:15:52;25.50;80.50
20795;DHT22;28087;-33.874;151.240;2023-03-18T16:18:27;25.50;80.50
20795;DHT22;28087;-33.874;151.240;2023-03-18T16:21:04;25.60;80.50